createdAt,value
2019-05-14T00:00:28.961Z,10.10
2019-05-14T00:02:56.380Z,10.10
2019-05-14T00:05:23.604Z,10.00
2019-05-14T00:07:52.191Z,9.90
2019-05-14T00:10:21.678Z,9.90
2019-05-14T00:12:51.090Z,9.90
2019-05-14T00:15:17.930Z,9.90
2019-05-14T00:17:45.250Z,9.90
2019-05-14T00:20:13.521Z,9.80
2019-05-14T00:22:41.656Z,9.80
2019-05-14T00:25:11.487Z,9.70
2019-05-14T00:27:38.501Z,9.70
2019-05-14T00:30:06.490Z,9.70
2019-05-14T00:32:34.261Z,9.70
2019-05-14T00:35:02.139Z,9.60
2019-05-14T00:37:30.081Z,9.60
2019-05-14T00:39:58.702Z,9.60
2019-05-14T00:42:26.006Z,9.60
2019-05-14T00:44:57.756Z,9.50
2019-05-14T00:47:22.573Z,9.40
2019-05-14T00:49:51.697Z,9.40
2019-05-14T00:52:19.239Z,9.30
2019-05-14T00:54:46.659Z,9.30
2019-05-14T00:57:13.972Z,9.30
2019-05-14T00:59:41.886Z,9.20
2019-05-14T01:02:11.372Z,9.20
2019-05-14T01:04:38.662Z,9.10
2019-05-14T01:07:06.028Z,9.10
2019-05-14T01:09:33.374Z,9.10
2019-05-14T01:12:01.796Z,9.00
2019-05-14T01:14:31.560Z,9.00
2019-05-14T01:16:58.490Z,8.90
2019-05-14T01:19:25.836Z,8.90
2019-05-14T01:21:53.258Z,8.90
2019-05-14T01:24:21.588Z,8.80
2019-05-14T01:26:48.995Z,8.80
2019-05-14T01:29:16.268Z,8.80
2019-05-14T01:31:43.602Z,8.70
2019-05-14T01:34:11.299Z,8.70
2019-05-14T01:36:38.792Z,8.70
2019-05-14T01:39:08.023Z,8.70
2019-05-14T01:41:35.350Z,8.70
2019-05-14T01:44:02.682Z,8.70
2019-05-14T01:46:31.689Z,8.60
2019-05-14T01:49:01.371Z,8.60
2019-05-14T01:51:28.437Z,8.50
2019-05-14T01:53:55.779Z,8.50
2019-05-14T01:56:23.021Z,8.50
2019-05-14T01:58:52.281Z,8.50
2019-05-14T02:01:21.889Z,8.50
2019-05-14T02:03:48.802Z,8.50
2019-05-14T02:06:16.178Z,8.40
2019-05-14T02:08:43.439Z,8.40
2019-05-14T02:11:12.077Z,8.40
2019-05-14T02:13:41.409Z,8.30
2019-05-14T02:16:08.681Z,8.30
2019-05-14T02:18:35.999Z,8.20
2019-05-14T02:21:03.254Z,8.20
2019-05-14T02:23:32.055Z,8.20
2019-05-14T02:25:59.514Z,8.10
2019-05-14T02:28:26.753Z,8.20
2019-05-14T02:30:59.022Z,8.10
2019-05-14T02:33:23.356Z,8.10
2019-05-14T02:35:50.810Z,8.00
2019-05-14T02:38:19.444Z,8.00
2019-05-14T02:40:49.372Z,8.00
2019-05-14T02:43:19.606Z,8.00
2019-05-14T02:46:02.074Z,7.90
2019-05-14T02:48:14.624Z,7.90
2019-05-14T02:50:41.965Z,7.90
2019-05-14T02:53:10.276Z,7.80
2019-05-14T02:55:39.104Z,7.80
2019-05-14T02:58:09.746Z,7.70
2019-05-14T03:00:35.689Z,7.70
2019-05-14T03:03:03.064Z,7.60
2019-05-14T03:05:30.339Z,7.60
2019-05-14T03:07:59.957Z,7.60
2019-05-14T03:10:30.089Z,7.50
2019-05-14T03:12:58.892Z,7.50
2019-05-14T03:15:25.413Z,7.40
2019-05-14T03:17:52.894Z,7.40
2019-05-14T03:20:20.231Z,7.30
2019-05-14T03:23:02.601Z,7.30
2019-05-14T03:25:19.321Z,7.30
2019-05-14T03:27:49.399Z,7.20
2019-05-14T03:30:15.768Z,7.20
2019-05-14T03:32:43.421Z,7.10
2019-05-14T03:35:13.788Z,7.10
2019-05-14T03:37:40.122Z,7.10
2019-05-14T03:40:09.241Z,7.10
2019-05-14T03:42:39.598Z,7.00
2019-05-14T03:45:08.534Z,7.10
2019-05-14T03:47:35.547Z,7.10
2019-05-14T03:50:04.015Z,7.00
2019-05-14T03:52:31.451Z,7.00
2019-05-14T03:55:04.310Z,7.00
2019-05-14T03:57:29.281Z,6.90
2019-05-14T03:59:59.785Z,6.90
2019-05-14T04:02:29.493Z,6.90
2019-05-14T04:04:55.610Z,6.90
2019-05-14T04:07:24.246Z,6.90
2019-05-14T04:09:52.412Z,6.90
2019-05-14T04:12:23.097Z,6.90
2019-05-14T04:14:52.725Z,6.90
2019-05-14T04:17:32.169Z,7.00
2019-05-14T04:19:53.008Z,6.90
2019-05-14T04:22:22.362Z,7.00
2019-05-14T04:24:53.255Z,7.00
2019-05-14T04:27:21.916Z,7.00
2019-05-14T04:29:52.690Z,7.00
2019-05-14T04:32:20.314Z,7.00
2019-05-14T04:34:49.877Z,7.10
2019-05-14T04:37:20.078Z,7.10
2019-05-14T04:39:50.027Z,7.10
2019-05-14T04:42:16.111Z,7.10
2019-05-14T04:44:43.448Z,7.10
2019-05-14T04:47:27.664Z,7.20
2019-05-14T04:49:40.267Z,7.20
2019-05-14T04:52:10.073Z,7.20
2019-05-14T04:54:39.395Z,7.30
2019-05-14T04:57:09.881Z,7.30
2019-05-14T04:59:39.336Z,7.30
2019-05-14T05:02:04.869Z,7.40
2019-05-14T05:04:32.220Z,7.40
2019-05-14T05:06:59.553Z,7.40
2019-05-14T05:09:29.307Z,7.40
2019-05-14T05:11:59.527Z,7.50
2019-05-14T05:14:25.606Z,7.60
2019-05-14T05:16:52.994Z,7.60
2019-05-14T05:19:20.314Z,7.60
2019-05-14T05:21:48.106Z,7.70
2019-05-14T05:24:15.591Z,7.70
2019-05-14T05:26:42.958Z,7.70
2019-05-14T05:29:10.608Z,7.60
2019-05-14T05:31:38.275Z,7.60
2019-05-14T05:34:05.724Z,7.60
2019-05-14T05:36:33.075Z,7.60
2019-05-14T05:39:00.350Z,7.60
2019-05-14T05:41:28.766Z,7.70
2019-05-14T05:43:56.108Z,7.70
2019-05-14T05:46:23.498Z,7.80
2019-05-14T05:48:50.757Z,7.80
2019-05-14T05:51:18.814Z,7.90
2019-05-14T05:53:48.378Z,7.90
2019-05-14T05:56:15.660Z,7.90
2019-05-14T05:58:43.043Z,7.90
2019-05-14T06:01:10.403Z,8.00
2019-05-14T06:03:39.264Z,8.00
2019-05-14T06:06:13.232Z,8.10
2019-05-14T06:08:38.572Z,8.20
2019-05-14T06:11:05.351Z,8.20
2019-05-14T06:13:32.617Z,8.30
2019-05-14T06:15:59.996Z,8.40
2019-05-14T06:18:28.579Z,8.40
2019-05-14T06:20:58.347Z,8.40
2019-05-14T06:23:28.162Z,8.50
2019-05-14T06:25:54.822Z,8.50
2019-05-14T06:28:22.246Z,8.50
2019-05-14T06:30:49.604Z,8.50
2019-05-14T06:33:19.403Z,8.50
2019-05-14T06:35:48.403Z,8.60
2019-05-14T06:38:15.429Z,8.60
2019-05-14T06:40:42.822Z,8.70
2019-05-14T06:43:10.292Z,8.70
2019-05-14T06:45:38.885Z,8.80
2019-05-14T06:48:08.712Z,8.80
2019-05-14T06:50:35.832Z,8.90
2019-05-14T06:53:03.236Z,9.00
2019-05-14T06:55:30.943Z,9.00
2019-05-14T06:57:58.568Z,9.00
2019-05-14T07:00:28.414Z,9.10
2019-05-14T07:02:55.418Z,9.10
2019-05-14T07:05:23.235Z,9.20
2019-05-14T07:07:50.641Z,9.30
2019-05-14T07:10:19.607Z,9.40
2019-05-14T07:12:49.718Z,9.50
2019-05-14T07:15:18.217Z,9.60
2019-05-14T07:17:45.587Z,9.60
2019-05-14T07:20:13.152Z,9.70
2019-05-14T07:22:40.478Z,9.80
2019-05-14T07:25:09.795Z,9.90
2019-05-14T07:27:39.248Z,10.00
2019-05-14T07:30:09.007Z,10.00
2019-05-14T07:32:39.209Z,10.10
2019-05-14T07:35:08.933Z,10.20
2019-05-14T07:37:35.890Z,10.20
2019-05-14T07:40:04.178Z,10.20
2019-05-14T07:42:31.622Z,10.30
2019-05-14T07:44:59.038Z,10.40
2019-05-14T07:47:26.410Z,10.50
2019-05-14T07:49:53.788Z,10.60
2019-05-14T07:52:21.129Z,10.70
2019-05-14T07:54:48.466Z,10.80
2019-05-14T07:57:15.693Z,10.80
2019-05-14T07:59:43.032Z,10.90
2019-05-14T08:02:12.755Z,11.00
2019-05-14T08:04:39.624Z,11.10
2019-05-14T08:07:08.892Z,11.20
2019-05-14T08:09:38.716Z,11.30
2019-05-14T08:12:05.306Z,11.40
2019-05-14T08:14:42.635Z,11.50
2019-05-14T08:17:01.808Z,11.50
2019-05-14T08:19:31.425Z,11.60
2019-05-14T08:21:58.795Z,11.70
2019-05-14T08:24:27.862Z,11.80
2019-05-14T08:26:57.815Z,11.90
2019-05-14T08:29:24.889Z,12.00
2019-05-14T08:31:52.231Z,12.20
2019-05-14T08:34:19.568Z,12.30
2019-05-14T08:36:48.357Z,12.30
2019-05-14T08:39:18.401Z,12.40
2019-05-14T08:41:58.565Z,12.50
2019-05-14T08:44:14.491Z,12.70
2019-05-14T08:46:45.007Z,12.90
2019-05-14T08:49:11.020Z,13.00
2019-05-14T08:51:38.876Z,13.10
2019-05-14T08:54:08.252Z,13.10
2019-05-14T08:56:35.577Z,13.20
2019-05-14T08:59:02.957Z,13.40
2019-05-14T09:01:30.278Z,13.60
2019-05-14T09:03:59.617Z,13.80
2019-05-14T09:06:28.952Z,14.30
2019-05-14T09:08:59.264Z,14.80
2019-05-14T09:11:26.406Z,15.20
2019-05-14T09:13:54.486Z,15.50
2019-05-14T09:16:38.306Z,16.20
2019-05-14T09:18:51.075Z,17.70
2019-05-14T09:21:20.607Z,19.20
2019-05-14T09:23:48.197Z,20.90
2019-05-14T09:26:17.940Z,21.90
2019-05-14T09:28:45.017Z,21.90
2019-05-14T09:31:12.364Z,21.40
2019-05-14T09:33:39.709Z,21.60
2019-05-14T09:36:17.924Z,22.70
2019-05-14T09:38:41.674Z,23.20
2019-05-14T09:41:14.199Z,23.60
2019-05-14T09:43:34.634Z,24.00
2019-05-14T09:46:01.977Z,23.30
2019-05-14T09:48:29.346Z,22.50
2019-05-14T09:50:58.604Z,21.50
2019-05-14T09:53:25.849Z,20.80
2019-05-14T09:55:53.045Z,20.30
2019-05-14T09:58:20.380Z,20.00
2019-05-14T10:00:48.548Z,21.30
2019-05-14T10:03:16.059Z,21.30
2019-05-14T10:05:45.508Z,20.80
2019-05-14T10:08:12.848Z,20.10
2019-05-14T10:10:41.988Z,20.60
2019-05-14T10:13:09.890Z,21.60
2019-05-14T10:15:39.052Z,21.10
2019-05-14T10:18:11.050Z,21.80
2019-05-14T10:20:44.418Z,23.00
2019-05-14T10:23:05.086Z,24.30
2019-05-14T10:25:32.420Z,25.40
2019-05-14T10:27:59.642Z,24.40
2019-05-14T10:30:28.560Z,24.40
2019-05-14T10:32:56.155Z,26.10
2019-05-14T10:35:23.545Z,27.40
2019-05-14T10:37:54.261Z,26.70
2019-05-14T10:40:20.169Z,25.00
2019-05-14T10:42:49.458Z,25.00
2019-05-14T10:45:18.638Z,26.20
2019-05-14T10:47:46.158Z,25.60
2019-05-14T10:50:14.108Z,24.30
2019-05-14T10:52:41.526Z,23.00
2019-05-14T10:55:09.058Z,21.90
2019-05-14T10:57:36.432Z,21.50
2019-05-14T11:00:04.387Z,22.10
2019-05-14T11:02:31.723Z,23.60
2019-05-14T11:04:58.988Z,23.70
2019-05-14T11:07:26.324Z,23.00
2019-05-14T11:09:53.672Z,22.40
2019-05-14T11:12:21.011Z,23.60
2019-05-14T11:14:49.354Z,25.20
2019-05-14T11:17:19.438Z,26.30
2019-05-14T11:19:47.872Z,27.30
2019-05-14T11:22:15.317Z,27.80
2019-05-14T11:24:42.569Z,27.40
2019-05-14T11:27:09.879Z,27.40
2019-05-14T11:29:38.787Z,27.60
2019-05-14T11:32:09.355Z,26.80
2019-05-14T11:34:35.429Z,26.30
2019-05-14T11:37:02.725Z,25.50
2019-05-14T11:39:30.128Z,24.90
2019-05-14T11:41:59.010Z,24.10
2019-05-14T11:44:28.578Z,23.40
2019-05-14T11:46:58.035Z,22.80
2019-05-14T11:49:25.137Z,22.10
2019-05-14T11:52:04.232Z,21.50
2019-05-14T11:54:23.105Z,21.00
2019-05-14T11:56:50.660Z,20.70
2019-05-14T11:59:18.938Z,20.10
2019-05-14T12:01:49.202Z,19.70
2019-05-14T12:04:15.863Z,19.30
2019-05-14T12:06:43.205Z,19.20
2019-05-14T12:09:11.906Z,19.00
2019-05-14T12:11:39.469Z,18.90
2019-05-14T12:14:08.829Z,18.70
2019-05-14T12:16:35.910Z,18.70
2019-05-14T12:19:03.301Z,18.70
2019-05-14T12:21:30.563Z,18.80
2019-05-14T12:24:04.053Z,18.80
2019-05-14T12:26:28.240Z,18.90
2019-05-14T12:28:58.844Z,19.00
2019-05-14T12:31:25.074Z,19.10
2019-05-14T12:33:52.433Z,19.30
2019-05-14T12:36:19.912Z,19.50
2019-05-14T12:38:47.123Z,19.50
2019-05-14T12:41:14.506Z,19.40
2019-05-14T12:43:43.920Z,19.50
2019-05-14T12:46:11.317Z,19.40
2019-05-14T12:48:39.116Z,19.30
2019-05-14T12:51:08.948Z,19.50
2019-05-14T12:53:36.143Z,19.60
2019-05-14T12:56:03.366Z,19.70
2019-05-14T12:58:30.757Z,19.80
2019-05-14T13:00:59.426Z,19.80
2019-05-14T13:03:28.471Z,19.70
2019-05-14T13:05:58.366Z,19.50
2019-05-14T13:08:25.189Z,19.50
2019-05-14T13:10:52.541Z,19.50
2019-05-14T13:13:19.982Z,19.50
2019-05-14T13:15:48.461Z,19.60
2019-05-14T13:18:15.969Z,19.80
2019-05-14T13:20:43.247Z,20.00
2019-05-14T13:23:10.569Z,20.10
2019-05-14T13:25:38.978Z,20.00
2019-05-14T13:28:09.006Z,19.70
2019-05-14T13:30:36.281Z,19.40
2019-05-14T13:33:05.491Z,19.20
2019-05-14T13:35:32.939Z,19.30
2019-05-14T13:38:00.203Z,19.50
2019-05-14T13:40:28.412Z,19.50
2019-05-14T13:42:55.884Z,19.50
2019-05-14T13:45:23.239Z,19.50
2019-05-14T13:47:50.854Z,19.60
2019-05-14T13:50:19.766Z,19.80
2019-05-14T13:52:59.833Z,19.80
2019-05-14T13:55:19.461Z,19.80
2019-05-14T13:57:48.569Z,19.80
2019-05-14T14:00:15.890Z,19.70
2019-05-14T14:02:43.264Z,19.70
2019-05-14T14:05:10.691Z,19.60
2019-05-14T14:07:39.553Z,19.50
2019-05-14T14:10:08.914Z,19.50
2019-05-14T14:12:39.875Z,19.30
2019-05-14T14:15:09.229Z,19.10
2019-05-14T14:17:38.785Z,19.00
2019-05-14T14:20:05.522Z,19.00
2019-05-14T14:22:32.913Z,19.10
2019-05-14T14:25:00.387Z,19.40
2019-05-14T14:27:30.022Z,19.50
2019-05-14T14:29:58.538Z,19.40
2019-05-14T14:32:26.018Z,19.10
2019-05-14T14:34:53.350Z,18.90
2019-05-14T14:37:20.798Z,19.00
2019-05-14T14:39:48.787Z,19.10
2019-05-14T14:42:19.248Z,19.30
2019-05-14T14:44:48.402Z,19.30
2019-05-14T14:47:15.315Z,19.20
2019-05-14T14:49:43.835Z,19.30
2019-05-14T14:52:12.262Z,19.20
2019-05-14T14:54:39.664Z,19.10
2019-05-14T14:57:08.477Z,18.90
2019-05-14T14:59:38.805Z,18.90
2019-05-14T15:02:05.238Z,19.10
2019-05-14T15:04:32.878Z,19.30
2019-05-14T15:07:00.332Z,19.50
2019-05-14T15:09:29.413Z,19.60
2019-05-14T15:11:59.641Z,19.60
2019-05-14T15:14:29.502Z,19.70
2019-05-14T15:16:55.119Z,19.60
2019-05-14T15:19:22.374Z,19.70
2019-05-14T15:21:49.599Z,19.60
2019-05-14T15:24:19.353Z,19.50
2019-05-14T15:26:46.185Z,19.50
2019-05-14T15:29:13.589Z,19.40
2019-05-14T15:31:40.910Z,19.30
2019-05-14T15:34:09.422Z,19.30
2019-05-14T15:36:41.326Z,19.40
2019-05-14T15:39:09.464Z,19.40
2019-05-14T15:41:39.114Z,19.50
2019-05-14T15:44:05.433Z,19.40
2019-05-14T15:46:32.621Z,19.30
2019-05-14T15:49:00.022Z,19.30
2019-05-14T15:51:28.597Z,19.30
2019-05-14T15:54:11.246Z,19.30
2019-05-14T15:56:25.296Z,19.20
2019-05-14T15:58:52.716Z,19.20
2019-05-14T16:01:20.245Z,19.20
2019-05-14T16:03:48.264Z,19.30
2019-05-14T16:06:15.717Z,19.20
2019-05-14T16:08:43.130Z,18.90
2019-05-14T16:11:11.416Z,18.90
2019-05-14T16:13:39.804Z,18.90
2019-05-14T16:16:10.278Z,19.00
2019-05-14T16:18:38.538Z,18.90
2019-05-14T16:21:05.893Z,18.70
2019-05-14T16:23:33.331Z,18.60
2019-05-14T16:26:00.667Z,18.50
2019-05-14T16:28:28.757Z,18.40
2019-05-14T16:30:58.702Z,18.30
2019-05-14T16:33:25.570Z,18.10
2019-05-14T16:35:52.997Z,18.00
2019-05-14T16:38:23.050Z,17.90
2019-05-14T16:40:49.551Z,18.00
2019-05-14T16:43:18.982Z,17.90
2019-05-14T16:45:46.103Z,17.90
2019-05-14T16:48:13.439Z,17.80
2019-05-14T16:50:40.761Z,17.70
2019-05-14T16:53:11.697Z,17.70
2019-05-14T16:55:38.402Z,17.60
2019-05-14T16:58:05.955Z,17.60
2019-05-14T17:00:34.834Z,17.50
2019-05-14T17:03:02.338Z,17.40
2019-05-14T17:05:30.258Z,17.30
2019-05-14T17:07:58.711Z,17.20
2019-05-14T17:10:28.428Z,17.10
2019-05-14T17:12:57.445Z,17.00
2019-05-14T17:15:24.657Z,17.00
2019-05-14T17:17:52.071Z,16.90
2019-05-14T17:20:23.540Z,16.80
2019-05-14T17:22:48.806Z,16.70
2019-05-14T17:25:26.790Z,16.60
2019-05-14T17:27:45.640Z,16.50
2019-05-14T17:30:13.283Z,16.40
2019-05-14T17:32:40.621Z,16.30
2019-05-14T17:35:08.488Z,16.20
2019-05-14T17:37:36.064Z,16.10
2019-05-14T17:40:03.685Z,16.00
2019-05-14T17:42:31.032Z,15.90
2019-05-14T17:44:58.936Z,15.90
2019-05-14T17:47:29.103Z,15.80
2019-05-14T17:49:58.931Z,15.80
2019-05-14T17:52:25.992Z,15.70
2019-05-14T17:54:53.354Z,15.60
2019-05-14T17:57:24.965Z,15.60
2019-05-14T17:59:49.880Z,15.60
2019-05-14T18:02:19.064Z,15.60
2019-05-14T18:04:48.654Z,15.50
2019-05-14T18:07:15.786Z,15.50
2019-05-14T18:09:43.150Z,15.50
2019-05-14T18:12:10.487Z,15.40
2019-05-14T18:14:38.587Z,15.40
2019-05-14T18:17:08.780Z,15.40
2019-05-14T18:19:37.876Z,15.40
2019-05-14T18:22:05.021Z,15.30
2019-05-14T18:24:32.245Z,15.20
2019-05-14T18:26:59.593Z,15.20
2019-05-14T18:29:29.284Z,15.20
2019-05-14T18:31:56.251Z,15.20
2019-05-14T18:34:23.615Z,15.10
2019-05-14T18:36:50.941Z,15.10
2019-05-14T18:39:20.749Z,15.00
2019-05-14T18:41:49.874Z,15.00
2019-05-14T18:44:18.960Z,14.90
2019-05-14T18:46:48.647Z,14.80
2019-05-14T18:49:15.760Z,14.80
2019-05-14T18:51:43.221Z,14.80
2019-05-14T18:54:10.603Z,14.70
2019-05-14T18:56:38.541Z,14.70
2019-05-14T18:59:06.001Z,14.60
2019-05-14T19:01:33.259Z,14.50
2019-05-14T19:04:00.614Z,14.50
2019-05-14T19:06:29.158Z,14.40
2019-05-14T19:08:56.479Z,14.30
2019-05-14T19:11:23.840Z,14.30
2019-05-14T19:13:51.251Z,14.20
2019-05-14T19:16:18.598Z,14.20
2019-05-14T19:18:46.011Z,14.10
2019-05-14T19:21:13.274Z,14.10
2019-05-14T19:23:40.585Z,14.00
2019-05-14T19:26:09.580Z,14.00
2019-05-14T19:28:38.943Z,13.90
2019-05-14T19:31:06.357Z,13.90
2019-05-14T19:33:33.629Z,13.80
2019-05-14T19:36:00.897Z,13.80
2019-05-14T19:38:28.303Z,13.80
2019-05-14T19:40:55.665Z,13.60
2019-05-14T19:43:22.993Z,13.60
2019-05-14T19:45:50.849Z,13.50
2019-05-14T19:48:18.946Z,13.50
2019-05-14T19:50:48.864Z,13.40
2019-05-14T19:53:15.559Z,13.30
2019-05-14T19:55:42.958Z,13.30
2019-05-14T19:58:10.291Z,13.20
2019-05-14T20:00:38.200Z,13.20
2019-05-14T20:03:05.788Z,13.20
2019-05-14T20:05:33.117Z,13.10
2019-05-14T20:08:00.387Z,13.10
2019-05-14T20:10:29.240Z,13.00
2019-05-14T20:12:58.703Z,13.00
2019-05-14T20:15:26.045Z,12.90
2019-05-14T20:17:53.292Z,12.90
2019-05-14T20:20:20.623Z,12.90
2019-05-14T20:22:49.971Z,12.80
2019-05-14T20:25:17.286Z,12.80
2019-05-14T20:27:44.693Z,12.90
2019-05-14T20:30:12.498Z,12.80
2019-05-14T20:32:40.058Z,12.70
2019-05-14T20:35:08.910Z,12.70
2019-05-14T20:37:38.835Z,12.70
2019-05-14T20:40:06.718Z,12.60
2019-05-14T20:42:34.114Z,12.60
2019-05-14T20:45:01.399Z,12.50
2019-05-14T20:47:28.831Z,12.50
2019-05-14T20:49:58.029Z,12.40
2019-05-14T20:52:25.461Z,12.40
2019-05-14T20:54:52.907Z,12.40
2019-05-14T20:57:26.813Z,12.30
2019-05-14T20:59:49.936Z,12.30
2019-05-14T21:02:18.565Z,12.20
2019-05-14T21:04:53.404Z,12.20
2019-05-14T21:07:15.699Z,12.20
2019-05-14T21:09:42.918Z,12.20
2019-05-14T21:12:10.260Z,12.10
2019-05-14T21:14:41.074Z,12.10
2019-05-14T21:17:08.524Z,12.00
2019-05-14T21:19:37.893Z,12.00
2019-05-14T21:22:05.123Z,12.00
2019-05-14T21:24:32.352Z,11.90
2019-05-14T21:26:59.601Z,11.90
2019-05-14T21:29:30.356Z,11.90
2019-05-14T21:31:56.012Z,11.80
2019-05-14T21:34:23.366Z,11.80
2019-05-14T21:36:50.574Z,11.80
2019-05-14T21:39:18.886Z,11.70
2019-05-14T21:41:46.339Z,11.70
2019-05-14T21:44:13.661Z,11.60
2019-05-14T21:46:40.998Z,11.60
2019-05-14T21:49:11.096Z,11.60
2019-05-14T21:51:39.235Z,11.50
2019-05-14T21:54:06.549Z,11.50
2019-05-14T21:56:33.764Z,11.50
2019-05-14T21:59:01.385Z,11.40
2019-05-14T22:01:30.908Z,11.40
2019-05-14T22:03:59.300Z,11.30
2019-05-14T22:06:28.955Z,11.30
2019-05-14T22:08:55.873Z,11.20
2019-05-14T22:11:23.260Z,11.10
2019-05-14T22:13:50.473Z,11.00
2019-05-14T22:16:18.980Z,10.90
2019-05-14T22:18:48.240Z,10.90
2019-05-14T22:21:15.472Z,10.80
2019-05-14T22:23:42.699Z,10.70
2019-05-14T22:26:09.915Z,10.60
2019-05-14T22:28:37.276Z,10.60
2019-05-14T22:31:04.572Z,10.50
2019-05-14T22:33:31.865Z,10.40
2019-05-14T22:35:59.220Z,10.40
2019-05-14T22:38:27.025Z,10.40
2019-05-14T22:40:55.806Z,10.30
2019-05-14T22:43:23.153Z,10.30
2019-05-14T22:45:50.522Z,10.20
2019-05-14T22:48:18.583Z,10.20
2019-05-14T22:50:48.395Z,10.20
2019-05-14T22:53:15.360Z,10.10
2019-05-14T22:55:42.726Z,10.10
2019-05-14T22:58:24.616Z,10.10
2019-05-14T23:00:47.432Z,10.10
2019-05-14T23:03:08.559Z,10.10
2019-05-14T23:05:35.894Z,10.00
2019-05-14T23:08:03.271Z,10.00
2019-05-14T23:10:30.500Z,9.90
2019-05-14T23:12:58.541Z,9.90
2019-05-14T23:15:26.047Z,9.80
2019-05-14T23:17:53.378Z,9.80
2019-05-14T23:20:20.622Z,9.70
2019-05-14T23:22:49.224Z,9.70
2019-05-14T23:25:18.457Z,9.60
2019-05-14T23:27:48.146Z,9.60
2019-05-14T23:30:19.354Z,9.60
2019-05-14T23:32:48.906Z,9.50
2019-05-14T23:35:15.858Z,9.50
2019-05-14T23:37:43.715Z,9.40
2019-05-14T23:40:11.075Z,9.40
2019-05-14T23:42:39.241Z,9.40
2019-05-14T23:45:08.226Z,9.30
2019-05-14T23:47:38.073Z,9.30
2019-05-14T23:50:04.985Z,9.20
2019-05-14T23:52:32.333Z,9.10
2019-05-14T23:54:59.593Z,9.10
2019-05-14T23:57:28.804Z,9.10
2019-05-14T23:59:57.966Z,9.10
